Coffeen, Illinois
Current Conditions -  °F | °C
As of 2:55 AM on Monday 20 Oct 2014 (Local Time) from K3LF Reporting Station
Clear Clear  
Wind Chill: 51°   Ceiling: Unl
Heat Index: 51°   Visibility: 10mi
Dew Point: 46°   Wind: 7mph
Humidity: 81%   Direction: 190°S
Pressure: 29.98"   Gusts: NA
Location:  39.09°N, 89.39°W
Report Text: K3LF 200755Z AUTO 19006KT 10SM CLR 11/08 A2998 RMK AO2 T01080076
Loading
Personal Weather Stations






























Interactive Weather Map
Tropical Storm Tracking
New forecast layout! Learn more

10-Day Weather Forecast

Advertisements
Track Severe Weather on mobile